createdAt,value
2022-12-04T13:15:01.000Z,4.22
2022-12-04T13:20:01.000Z,4.05
2022-12-04T13:25:01.000Z,4.04
2022-12-04T13:30:01.000Z,4.07
2022-12-04T13:35:02.000Z,4.08
2022-12-04T13:40:02.000Z,4.12
2022-12-04T13:45:02.000Z,4.08
2022-12-04T13:50:01.000Z,4.02
2022-12-04T13:55:02.000Z,4.02
2022-12-04T14:00:01.000Z,4.01
2022-12-04T14:05:01.000Z,4.04
2022-12-04T14:10:01.000Z,4.05
2022-12-04T14:15:01.000Z,3.97
2022-12-04T14:20:01.000Z,4.02
2022-12-04T14:25:01.000Z,4.13
2022-12-04T14:30:01.000Z,4.14
2022-12-04T14:35:02.000Z,4.18
2022-12-04T14:40:02.000Z,4.20
2022-12-04T14:45:02.000Z,4.20
2022-12-04T14:50:01.000Z,4.26
2022-12-04T14:55:01.000Z,4.31
2022-12-04T15:00:02.000Z,4.34
2022-12-04T15:05:01.000Z,4.31
2022-12-04T15:10:02.000Z,4.27
2022-12-04T15:15:02.000Z,4.19
2022-12-04T15:20:02.000Z,4.16
2022-12-04T15:25:01.000Z,4.14
2022-12-04T15:30:02.000Z,4.12
2022-12-04T15:35:02.000Z,4.00
2022-12-04T15:40:02.000Z,3.99
2022-12-04T15:45:02.000Z,3.91
2022-12-04T15:50:01.000Z,3.95
2022-12-04T15:55:02.000Z,3.91
2022-12-04T16:00:01.000Z,3.92
2022-12-04T16:05:03.000Z,3.89
2022-12-04T16:10:02.000Z,3.87
2022-12-04T16:15:02.000Z,3.82
2022-12-04T16:20:01.000Z,3.85
2022-12-04T16:25:02.000Z,3.85
2022-12-04T16:30:02.000Z,3.83
2022-12-04T16:35:02.000Z,3.83
2022-12-04T16:40:01.000Z,3.79
2022-12-04T16:45:02.000Z,3.75
2022-12-04T16:50:01.000Z,3.76
2022-12-04T16:55:01.000Z,3.78
2022-12-04T17:00:02.000Z,3.78
2022-12-04T17:05:02.000Z,3.78
2022-12-04T17:10:02.000Z,3.84
2022-12-04T17:15:02.000Z,3.86
2022-12-04T17:20:02.000Z,3.85
2022-12-04T17:25:02.000Z,3.86
2022-12-04T17:30:02.000Z,3.85
2022-12-04T17:35:02.000Z,3.89
2022-12-04T17:40:02.000Z,3.92
2022-12-04T17:45:02.000Z,3.95
2022-12-04T17:50:02.000Z,3.99
2022-12-04T17:55:02.000Z,4.01
2022-12-04T18:00:02.000Z,4.01
2022-12-04T18:05:02.000Z,4.04
2022-12-04T18:10:01.000Z,4.03
2022-12-04T18:15:02.000Z,4.01
2022-12-04T18:20:02.000Z,4.01
2022-12-04T18:25:03.000Z,4.01
2022-12-04T18:30:03.000Z,4.01
2022-12-04T18:35:02.000Z,4.00
2022-12-04T18:40:01.000Z,4.02
2022-12-04T18:45:01.000Z,4.02
2022-12-04T18:50:02.000Z,3.95
2022-12-04T18:55:01.000Z,3.93
2022-12-04T19:00:02.000Z,3.95
2022-12-04T19:05:02.000Z,3.92
2022-12-04T19:10:01.000Z,3.99
2022-12-04T19:15:02.000Z,4.00
2022-12-04T19:20:02.000Z,4.01
2022-12-04T19:25:02.000Z,3.99
2022-12-04T19:30:02.000Z,3.94
2022-12-04T19:35:01.000Z,3.94
2022-12-04T19:40:02.000Z,3.93
2022-12-04T19:45:02.000Z,3.87
2022-12-04T19:50:02.000Z,3.86
2022-12-04T19:55:02.000Z,3.83
2022-12-04T20:00:02.000Z,3.84
2022-12-04T20:05:02.000Z,3.86
2022-12-04T20:10:02.000Z,3.85
2022-12-04T20:15:02.000Z,3.86
2022-12-04T20:20:02.000Z,3.91
2022-12-04T20:25:02.000Z,3.87
2022-12-04T20:30:02.000Z,3.92
2022-12-04T20:35:02.000Z,3.93
2022-12-04T20:40:02.000Z,3.98
2022-12-04T20:45:01.000Z,4.01
2022-12-04T20:50:02.000Z,4.04
2022-12-04T20:55:02.000Z,4.03
2022-12-04T21:00:02.000Z,4.01
2022-12-04T21:05:02.000Z,3.98
2022-12-04T21:10:02.000Z,3.98
2022-12-04T21:15:02.000Z,4.00
2022-12-04T21:20:02.000Z,4.01
2022-12-04T21:25:02.000Z,4.02
2022-12-04T21:30:02.000Z,3.99
2022-12-04T21:35:02.000Z,3.99
2022-12-04T21:40:02.000Z,3.98
2022-12-04T21:45:02.000Z,3.97
2022-12-04T21:50:02.000Z,3.99
2022-12-04T21:55:02.000Z,3.98
2022-12-04T22:00:02.000Z,3.92
2022-12-04T22:05:02.000Z,3.93
2022-12-04T22:10:02.000Z,3.93
2022-12-04T22:15:02.000Z,3.92
2022-12-04T22:20:02.000Z,3.90
2022-12-04T22:25:02.000Z,3.89
2022-12-04T22:30:02.000Z,3.85
2022-12-04T22:35:02.000Z,3.83
2022-12-04T22:40:02.000Z,3.84
2022-12-04T22:45:02.000Z,3.86
2022-12-04T22:50:02.000Z,3.86
2022-12-04T22:55:02.000Z,3.89
2022-12-04T23:00:02.000Z,3.89
2022-12-04T23:05:02.000Z,3.92
2022-12-04T23:10:02.000Z,3.93
2022-12-04T23:15:02.000Z,3.91
2022-12-04T23:20:02.000Z,3.93
2022-12-04T23:25:02.000Z,3.94
2022-12-04T23:30:02.000Z,3.95
2022-12-04T23:35:02.000Z,3.97
2022-12-04T23:40:02.000Z,3.99
2022-12-04T23:45:02.000Z,3.99
2022-12-04T23:50:02.000Z,4.01
2022-12-04T23:55:02.000Z,4.01
